Terminal Aerodrome Forecast
Issued by NWS

Home | Current Version | Previous Version | Text Only | Print | Product List | Glossary On
Versions: 1 2 3 4 5 6 7 8 9 10 11 12 13 14 15 16 17 18 19 20 21 22 23 24 25 26 27 28 29 30
000
FTUS44 KLZK 182320
TAFHOT
TAF
KHOT 182320Z 1900/1924 VRB03KT P6SM SCT050 BKN250
     FM191000 VRB03KT P6SM VCTS SCT025 BKN050CB OVC150
      TEMPO 1910/1914 5SM -TSRA BR BKN025CB OVC050
     FM191400 18008KT 5SM -TSRA BR BKN025CB OVC050
     FM191900 21008G16KT P6SM VCTS SCT025 BKN050CB PROB30 1919/1924
      2SM TSRA BR BKN025CB=

USA.gov is the U.S. government's official web portal to all federal, state and local government web resources and services.